Flight Track Log - Related Links

Times and Time Zones

All times are in EDT time to prevent confusion due to time zone crossing. See the SKW2630 flight status page for this flight to view local times or setup timezone preferences in your user account.

Time Position Orientation Groundspeed Altitude Reporting Facility
EDT Latitude Longitude Course Direction KTS MPH feet Rate Location/Type
Sun 11:47:14 AM 33.9656 -118.3578 336° Northwest 208 239 2,600  Level Los Angeles Center
Sun 11:48:15 AM 33.9978 -118.2794 64° Northeast 250 288 6,000 3,073 Climbing Los Angeles Center
Sun 11:49:17 AM 34.0689 -118.2619 12° North 286 329 8,900 3,000 Climbing Los Angeles Center
Sun 11:50:19 AM 34.1453 -118.3036 336° Northwest 299 344 12,200 3,048 Climbing Los Angeles Center
Sun 11:51:21 AM 34.2333 -118.3675 329° Northwest 318 366 15,200 2,419 Climbing Los Angeles Center
Sun 11:52:00 AM 34.4706 -118.6846 345° North  Level FlightAware Approximate
Sun 11:52:23 AM 34.3225 -118.4011 343° North 334 384 17,200  Level Los Angeles Center
Sun 11:53:00 AM 34.5639 -118.7241 336° Northwest  Level FlightAware Approximate
Sun 11:53:24 AM 34.4156 -118.4364 343° North 350 403 19,400  Level Los Angeles Center
Sun 11:54:26 AM 34.5114 -118.4728 343° North 361 415 21,200 1,548 Climbing Los Angeles Center
Sun 11:55:28 AM 34.6114 -118.5103 343° North 375 432 22,600 1,366 Climbing Los Angeles Center
Sun 11:56:29 AM 34.7150 -118.5525 341° North 393 452 24,000 683 Climbing Los Angeles Center
Sun 11:57:31 AM 34.8461 -118.6017 343° North 413 475 24,000  Level Los Angeles Center
Sun 11:58:33 AM 34.9631 -118.6458 343° North 429 494 24,000  Level Los Angeles Center
Sun 11:59:34 AM 35.0544 -118.6817 342° North 431 496 24,000  Level Los Angeles Center
Sun 12:00:36 PM 35.1889 -118.7336 342° North 427 491 24,000  Level Los Angeles Center
Sun 12:01:38 PM 35.3014 -118.7769 343° North 425 489 24,000  Level Los Angeles Center
Sun 12:02:40 PM 35.4128 -118.8208 342° North 424 488 24,000  Level Los Angeles Center
Sun 12:03:41 PM 35.5217 -118.8642 342° North 416 479 24,000 -829 Level Los Angeles Center
Sun 12:04:43 PM 35.6528 -118.9164 342° North 415 478 22,300 -1,514 Descending Los Angeles Center
Sun 12:05:28 PM 35.7189 -118.9425 342° North 418 481 21,300 -1,472 Descending Oakland Center
Sun 12:06:29 PM 35.8275 -118.9861 342° North 416 479 19,700 -1,820 Descending Oakland Center
Sun 12:07:30 PM 35.9572 -119.0397 342° North 414 476 17,600 -1,820 Descending Oakland Center
Sun 12:08:31 PM 36.0628 -119.0922 338° Northwest 413 475 16,000 -1,574 Descending Oakland Center
Sun 12:09:32 PM 36.1653 -119.1422 339° North 404 465 14,400 -976 Descending Oakland Center
Sun 12:10:34 PM 36.2628 -119.1856 340° North 387 445 14,000 -878 Descending Oakland Center
Sun 12:11:35 PM 36.3589 -119.2328 338° Northwest 373 429 12,600 -1,426 Descending Oakland Center
Sun 12:12:36 PM 36.4486 -119.2747 339° North 348 400 11,100 -1,475 Descending Oakland Center
Sun 12:13:37 PM 36.5272 -119.3136 338° Northwest 311 358 9,600 -1,475 Descending Oakland Center
Sun 12:14:38 PM 36.6036 -119.3603 334° Northwest 308 354 8,100 -1,475 Descending Oakland Center
Sun 12:15:39 PM 36.6722 -119.4192 325° Northwest 302 348 6,600 -1,033 Descending Oakland Center
Sun 12:16:40 PM 36.7381 -119.4747 326° Northwest 287 330 6,000 -780 Descending Oakland Center
Sun 12:17:42 PM 36.8089 -119.5536 318° Northwest 286 329 5,000 -1,171 Descending Oakland Center
Sun 12:18:43 PM 36.8525 -119.6275 306° West 262 302 3,600 -1,131 Descending Oakland Center
Sun 12:19:44 PM 36.8858 -119.6947 302° West 227 261 2,700 -787 Descending Oakland Center
Sun 12:20:45 PM 36.8583 -119.7461 236° Southwest 166 191 2,000 -541 Descending Oakland Center
Sun 12:21:46 PM 36.8261 -119.7797 220° Southwest 155 178 1,600 -541 Descending Oakland Center
Sun 12:22:47 PM 36.7961 -119.7569 149° Southeast 123 142 900 -634 Descending Oakland Center
Sun 12:23:49 PM 36.7803 -119.7281 124° Southeast 115 132 300 -581 Descending Oakland Center

Login

Don't have an account? Register now (free) for customized features, flight alerts, and more!